Time;durP1;ratioP1;P1;durP2;ratioP2;P2;SDS_P1;SDS_P2;PMS_P1;PMS_P2;Temp;Humidity;BMP_temperature;BMP_pressure;BME280_temperature;BME280_humidity;BME280_pressure;Samples;Min_cycle;Max_cycle;Signal;HPM_P1;HPM_P2
2023/11/18 00:04:34;;;;;;;35.28;18.63;;;7.10;99.90;;;;;;20775687;28;20096;-44
2023/11/18 00:14:34;;;;;;;34.08;19.58;;;7.10;99.90;;;;;;20787558;28;20071;-44
2023/11/18 00:24:35;;;;;;;29.73;18.08;;;7.10;99.90;;;;;;20784043;28;20122;-43
2023/11/18 00:34:35;;;;;;;29.83;17.92;;;7.20;99.90;;;;;;20777677;28;20910;-44
2023/11/18 00:44:36;;;;;;;37.23;20.60;;;7.20;99.90;;;;;;20808625;28;20040;-44
2023/11/18 00:54:36;;;;;;;32.10;18.38;;;7.30;99.90;;;;;;20800250;28;21031;-44
2023/11/18 01:04:37;;;;;;;29.42;16.83;;;7.20;99.90;;;;;;20791054;28;20729;-44
2023/11/18 01:14:39;;;;;;;28.20;17.33;;;7.00;99.90;;;;;;20801517;28;20056;-44
2023/11/18 01:24:39;;;;;;;27.67;17.45;;;6.90;99.90;;;;;;20785438;28;20045;-44
2023/11/18 01:34:40;;;;;;;27.08;16.55;;;7.00;99.90;;;;;;20795455;28;20121;-44
2023/11/18 01:44:41;;;;;;;29.90;18.38;;;7.00;99.90;;;;;;20800396;28;20041;-44
2023/11/18 01:54:44;;;;;;;28.52;16.75;;;7.10;99.90;;;;;;20789898;28;20053;-44
2023/11/18 02:04:45;;;;;;;31.35;16.42;;;7.00;99.90;;;;;;20789449;28;20049;-43
2023/11/18 02:14:46;;;;;;;27.08;14.85;;;7.20;99.90;;;;;;20793105;28;20580;-43
2023/11/18 02:24:46;;;;;;;25.92;15.27;;;7.20;99.90;;;;;;20791897;28;20125;-44
2023/11/18 02:34:55;;;;;;;31.23;15.77;;;7.20;99.90;;;;;;20787187;28;20070;-44
2023/11/18 02:44:59;;;;;;;26.45;14.98;;;7.10;99.90;;;;;;20797929;28;20781;-44
2023/11/18 02:54:59;;;;;;;23.63;15.48;;;7.10;99.90;;;;;;20789501;28;20518;-44
2023/11/18 03:05:00;;;;;;;26.92;16.80;;;7.00;99.90;;;;;;20735710;28;20462;-44
2023/11/18 03:15:01;;;;;;;28.05;17.17;;;6.90;99.90;;;;;;20772432;28;20128;-43
2023/11/18 03:25:01;;;;;;;26.70;15.70;;;7.00;99.90;;;;;;20765821;28;20052;-44
2023/11/18 03:35:09;;;;;;;25.90;16.25;;;7.00;99.90;;;;;;20777117;28;20493;-44
2023/11/18 03:45:10;;;;;;;25.83;15.05;;;7.00;99.90;;;;;;20762819;28;20372;-44
2023/11/18 03:55:10;;;;;;;25.50;15.17;;;7.00;99.90;;;;;;20733609;28;20045;-44
2023/11/18 04:05:12;;;;;;;24.02;15.07;;;7.20;99.90;;;;;;20784487;28;20570;-44
2023/11/18 04:15:12;;;;;;;26.63;15.05;;;7.30;94.70;;;;;;20800936;28;20084;-43
2023/11/18 04:25:13;;;;;;;25.73;13.85;;;7.30;96.70;;;;;;20801186;28;20135;-44
2023/11/18 04:35:13;;;;;;;26.13;13.93;;;7.30;81.40;;;;;;20799866;28;20102;-44
2023/11/18 04:45:14;;;;;;;23.77;13.45;;;7.30;84.20;;;;;;20805054;28;20040;-44
2023/11/18 04:55:15;;;;;;;25.67;13.80;;;7.30;72.00;;;;;;20794784;28;20076;-44
2023/11/18 05:05:16;;;;;;;22.63;13.77;;;7.50;54.10;;;;;;20797688;28;20076;-44
2023/11/18 05:15:17;;;;;;;20.83;11.73;;;7.40;45.70;;;;;;20802733;28;20521;-43
2023/11/18 05:25:18;;;;;;;25.30;12.52;;;7.40;49.70;;;;;;20795631;28;20513;-44
2023/11/18 05:35:18;;;;;;;30.15;12.50;;;7.50;40.70;;;;;;20792645;28;20049;-44
2023/11/18 05:45:28;;;;;;;24.65;12.65;;;7.40;31.70;;;;;;20801215;28;20034;-44
2023/11/18 05:55:28;;;;;;;25.92;12.48;;;7.50;22.70;;;;;;20778621;28;20203;-44
2023/11/18 06:05:34;;;;;;;25.48;12.35;;;7.50;26.90;;;;;;20792828;28;20044;-44
2023/11/18 06:15:38;;;;;;;26.92;12.50;;;7.50;23.00;;;;;;20777614;28;20052;-44
2023/11/18 06:25:39;;;;;;;28.23;13.23;;;7.60;21.70;;;;;;20790467;28;20678;-44
2023/11/18 06:35:40;;;;;;;33.63;13.38;;;7.60;19.10;;;;;;20780877;28;20049;-43
2023/11/18 06:45:43;;;;;;;28.27;13.18;;;7.60;17.30;;;;;;20799599;28;20574;-43
2023/11/18 06:55:44;;;;;;;26.60;13.45;;;7.50;23.40;;;;;;20756453;28;20059;-44
2023/11/18 07:05:44;;;;;;;26.17;13.40;;;7.60;26.90;;;;;;20776142;28;20124;-44
2023/11/18 07:15:45;;;;;;;29.10;14.07;;;7.60;22.20;;;;;;20771405;28;20131;-44
2023/11/18 07:25:46;;;;;;;27.90;14.47;;;7.50;27.60;;;;;;20781786;28;20487;-44
2023/11/18 07:35:48;;;;;;;26.35;15.00;;;7.40;30.00;;;;;;20753584;28;20762;-44
2023/11/18 07:45:52;;;;;;;25.08;14.45;;;7.40;37.50;;;;;;20785422;28;20513;-44
2023/11/18 07:55:53;;;;;;;31.15;15.90;;;7.40;37.40;;;;;;20765876;28;20533;-44
2023/11/18 08:05:54;;;;;;;28.67;14.93;;;7.30;42.10;;;;;;20788971;28;20129;-44
2023/11/18 08:15:57;;;;;;;31.85;14.52;;;7.30;51.50;;;;;;20785521;28;20045;-43
2023/11/18 08:25:58;;;;;;;25.45;13.48;;;7.30;58.20;;;;;;20779745;28;20037;-44
2023/11/18 08:36:01;;;;;;;25.17;12.50;;;7.30;62.20;;;;;;20784130;28;20053;-43
2023/11/18 08:46:02;;;;;;;25.35;12.82;;;7.40;67.00;;;;;;20784171;28;20439;-43
2023/11/18 08:56:05;;;;;;;21.90;11.65;;;7.40;73.50;;;;;;20786403;28;20517;-43
2023/11/18 09:06:17;;;;;;;19.77;10.63;;;7.40;89.10;;;;;;20798609;28;20037;-44
2023/11/18 09:16:17;;;;;;;21.45;9.40;;;7.50;77.90;;;;;;20778663;28;20056;-43
2023/11/18 09:26:18;;;;;;;17.88;8.30;;;7.50;72.10;;;;;;20796438;28;20506;-43
2023/11/18 09:36:20;;;;;;;17.88;7.65;;;7.60;79.80;;;;;;20770383;28;20448;-43
2023/11/18 09:46:27;;;;;;;17.30;7.03;;;7.60;96.50;;;;;;20808166;28;20134;-43
2023/11/18 09:57:08;;;;;;;11.63;5.90;;;7.40;99.90;;;;;;20810208;28;20118;-43
2023/11/18 10:07:11;;;;;;;12.85;6.93;;;7.60;99.90;;;;;;20805091;28;20120;-43
2023/11/18 10:17:14;;;;;;;11.20;5.40;;;7.50;99.90;;;;;;20802549;28;20062;-43
2023/11/18 10:27:15;;;;;;;10.20;5.30;;;7.70;99.90;;;;;;20785317;28;20159;-43
2023/11/18 10:37:16;;;;;;;10.45;4.90;;;7.80;99.90;;;;;;20776661;28;21293;-43
2023/11/18 10:47:17;;;;;;;13.40;4.88;;;7.80;99.90;;;;;;20750542;28;20088;-43
2023/11/18 10:57:19;;;;;;;13.77;4.50;;;7.90;99.90;;;;;;20771843;28;20056;-43
2023/11/18 11:07:23;;;;;;;9.68;4.25;;;8.00;99.90;;;;;;20777063;28;20445;-43
2023/11/18 11:17:30;;;;;;;10.15;4.78;;;8.00;99.90;;;;;;20786309;28;20057;-43
2023/11/18 11:27:51;;;;;;;12.57;4.80;;;8.00;99.90;;;;;;20783084;28;20534;-43
2023/11/18 11:38:02;;;;;;;10.25;6.13;;;8.00;99.90;;;;;;20786039;28;20052;-43
2023/11/18 11:48:14;;;;;;;10.07;4.38;;;8.10;99.90;;;;;;20805218;28;20486;-43
2023/11/18 11:58:28;;;;;;;9.65;4.10;;;8.20;99.90;;;;;;20799737;28;20465;-44
2023/11/18 12:08:29;;;;;;;9.70;4.38;;;8.30;99.90;;;;;;20802748;28;20507;-44
2023/11/18 12:18:36;;;;;;;11.02;4.15;;;8.40;99.90;;;;;;20786827;28;20046;-44
2023/11/18 12:28:38;;;;;;;8.60;4.13;;;8.40;99.90;;;;;;20763491;28;20120;-43
2023/11/18 12:39:03;;;;;;;9.50;3.47;;;8.50;99.90;;;;;;20800903;28;20049;-44
2023/11/18 12:49:04;;;;;;;7.88;3.67;;;8.50;99.90;;;;;;20796927;28;20041;-43
2023/11/18 12:59:05;;;;;;;6.55;3.17;;;8.50;99.90;;;;;;20791990;28;20038;-44
2023/11/18 13:09:09;;;;;;;5.00;2.08;;;8.50;99.90;;;;;;20798064;28;20600;-44
2023/11/18 13:19:10;;;;;;;6.32;2.20;;;8.60;99.90;;;;;;20770555;28;20486;-43
2023/11/18 13:29:10;;;;;;;3.92;1.98;;;8.60;99.90;;;;;;20792114;28;20537;-44
2023/11/18 13:39:18;;;;;;;2.53;1.35;;;8.60;99.90;;;;;;20796973;28;20368;-44
2023/11/18 13:49:20;;;;;;;2.60;1.40;;;8.70;99.90;;;;;;20785743;28;20026;-43
2023/11/18 13:59:22;;;;;;;3.78;1.65;;;8.70;99.90;;;;;;20797397;28;20589;-44
2023/11/18 14:09:24;;;;;;;2.83;1.50;;;8.70;99.90;;;;;;20777762;28;20530;-44
2023/11/18 14:19:26;;;;;;;4.20;1.83;;;8.70;99.90;;;;;;20785206;28;20038;-43
2023/11/18 14:29:27;;;;;;;2.58;1.60;;;8.80;99.90;;;;;;20787123;28;20033;-43
2023/11/18 14:39:29;;;;;;;4.15;1.70;;;8.80;99.90;;;;;;20799704;28;20068;-44
2023/11/18 14:49:29;;;;;;;3.35;1.60;;;8.70;99.90;;;;;;20788432;28;20426;-43
2023/11/18 14:59:31;;;;;;;2.97;1.88;;;8.70;99.90;;;;;;20795554;28;20072;-43
2023/11/18 15:09:32;;;;;;;3.80;1.80;;;8.70;99.90;;;;;;20801548;28;20045;-43
2023/11/18 15:19:33;;;;;;;3.05;1.90;;;8.70;99.90;;;;;;20789506;28;20049;-44
2023/11/18 15:29:38;;;;;;;3.00;2.15;;;8.80;99.90;;;;;;20783488;28;20037;-43
2023/11/18 15:39:38;;;;;;;2.50;1.13;;;8.80;99.90;;;;;;20808060;28;20037;-43
2023/11/18 15:49:39;;;;;;;2.58;1.70;;;8.90;99.90;;;;;;20798181;28;20037;-44
2023/11/18 15:59:40;;;;;;;2.42;1.50;;;8.90;99.90;;;;;;20805069;28;20037;-43
2023/11/18 16:09:40;;;;;;;3.40;1.40;;;9.00;99.90;;;;;;20784198;28;20081;-44
2023/11/18 16:19:41;;;;;;;2.47;1.80;;;9.00;99.90;;;;;;20796698;28;20041;-43
2023/11/18 16:29:42;;;;;;;3.38;2.17;;;9.10;99.90;;;;;;20809139;28;20426;-43
2023/11/18 16:39:42;;;;;;;3.97;2.80;;;9.10;99.90;;;;;;20778532;28;20045;-44
2023/11/18 16:49:44;;;;;;;5.28;3.67;;;9.20;99.90;;;;;;20798398;28;20203;-43
2023/11/18 16:59:45;;;;;;;5.75;4.45;;;9.40;99.90;;;;;;20808427;28;20489;-43
2023/11/18 17:09:45;;;;;;;7.65;5.63;;;9.30;99.90;;;;;;20788451;28;20191;-43
2023/11/18 17:19:46;;;;;;;8.68;6.45;;;9.50;99.90;;;;;;20805662;28;20514;-43
2023/11/18 17:29:46;;;;;;;10.13;7.70;;;9.70;99.90;;;;;;20821855;28;20467;-43
2023/11/18 17:39:47;;;;;;;12.68;9.95;;;9.80;99.90;;;;;;20817371;28;20150;-43
2023/11/18 17:49:47;;;;;;;15.95;12.13;;;9.90;99.90;;;;;;20814569;28;20040;-43
2023/11/18 17:59:48;;;;;;;20.13;14.95;;;10.10;99.90;;;;;;20811900;28;20041;-43
2023/11/18 18:09:49;;;;;;;18.83;14.73;;;10.20;99.90;;;;;;20791901;28;20318;-43
2023/11/18 18:19:50;;;;;;;22.90;16.45;;;10.30;99.90;;;;;;20813545;28;20059;-44
2023/11/18 18:29:50;;;;;;;20.98;14.85;;;10.60;99.90;;;;;;20813869;28;20049;-43
2023/11/18 18:39:52;;;;;;;19.80;13.98;;;11.10;99.90;;;;;;20812555;28;20076;-44
2023/11/18 18:49:53;;;;;;;19.70;13.20;;;11.40;99.90;;;;;;20808912;28;20045;-43
2023/11/18 18:59:53;;;;;;;18.63;13.45;;;11.70;99.90;;;;;;20778788;28;20401;-43
2023/11/18 19:09:54;;;;;;;18.98;13.45;;;11.80;99.90;;;;;;20782477;28;20465;-44
2023/11/18 19:19:55;;;;;;;23.40;15.17;;;11.80;99.90;;;;;;20775454;28;20497;-43
2023/11/18 19:29:55;;;;;;;25.98;16.40;;;12.10;99.90;;;;;;20760506;28;20474;-44
2023/11/18 19:39:56;;;;;;;26.40;18.25;;;12.10;99.90;;;;;;20775316;28;20410;-43
2023/11/18 19:49:57;;;;;;;29.90;18.35;;;12.20;99.90;;;;;;20782857;28;20326;-44
2023/11/18 19:59:58;;;;;;;31.60;18.67;;;12.30;99.90;;;;;;20764561;28;20915;-44
2023/11/18 20:09:59;;;;;;;27.65;17.60;;;12.30;99.90;;;;;;20765758;28;20153;-44
2023/11/18 20:19:59;;;;;;;28.25;17.83;;;12.30;99.90;;;;;;20780687;28;20049;-44
2023/11/18 20:30:00;;;;;;;25.70;18.00;;;12.40;99.90;;;;;;20783063;28;20854;-44
2023/11/18 20:40:03;;;;;;;28.20;17.17;;;12.50;99.90;;;;;;20782653;28;20042;-44
2023/11/18 20:50:04;;;;;;;23.85;15.68;;;12.60;99.90;;;;;;20770315;28;20037;-44
2023/11/18 21:00:07;;;;;;;22.73;15.32;;;12.70;99.90;;;;;;20795725;28;21009;-44
2023/11/18 21:10:07;;;;;;;22.95;14.23;;;12.80;99.90;;;;;;20785118;28;20066;-43
2023/11/18 21:20:15;;;;;;;28.42;15.75;;;13.00;99.90;;;;;;20783177;28;20414;-44
2023/11/18 21:30:16;;;;;;;28.85;16.52;;;13.00;99.90;;;;;;20778233;28;20107;-44
2023/11/18 21:40:19;;;;;;;27.63;15.85;;;13.00;99.90;;;;;;20784532;28;20041;-44
2023/11/18 21:50:20;;;;;;;25.33;14.98;;;13.00;99.90;;;;;;20783283;28;20130;-44
2023/11/18 22:00:21;;;;;;;26.65;14.07;;;13.10;99.90;;;;;;20757801;28;20050;-44
2023/11/18 22:10:22;;;;;;;22.33;11.73;;;13.20;99.90;;;;;;20783270;28;20253;-44
2023/11/18 22:20:24;;;;;;;24.65;11.27;;;13.20;99.90;;;;;;20781568;28;20493;-44
2023/11/18 22:30:25;;;;;;;19.73;10.23;;;13.30;99.90;;;;;;20786265;28;20448;-44
2023/11/18 22:40:26;;;;;;;17.90;10.88;;;13.40;99.90;;;;;;20774842;28;20088;-44
2023/11/18 22:50:26;;;;;;;20.15;9.63;;;13.50;99.90;;;;;;20786552;28;20132;-44
2023/11/18 23:10:45;;;;;;;17.98;4.82;;;13.70;99.90;;;;;;20780318;28;20203;-44
2023/11/18 23:20:46;;;;;;;15.27;3.95;;;13.60;99.90;;;;;;20782527;28;20126;-44
2023/11/18 23:30:47;;;;;;;20.30;3.65;;;13.70;99.90;;;;;;20795093;28;20033;-44
2023/11/18 23:40:48;;;;;;;24.83;4.07;;;13.90;99.90;;;;;;20801921;28;20064;-44
2023/11/18 23:50:50;;;;;;;22.38;3.42;;;13.90;99.90;;;;;;20777826;28;21117;-44
